Elimsport, Pennsylvania
Current Conditions -  °F | °C
As of 8:05 PM on Monday 26 Jan 2015 (Local Time) from KIPT Reporting Station
Light Snow Light Snow  
Wind Chill: -4°   Ceiling: 1600
Heat Index: -4°   Visibility: 2mi
Dew Point: -7°   Wind: 3mph
Humidity: 84%   Direction: 290°WNW
Pressure: 29.84"   Gusts: NA
Location:  41.1181°N, 77.0218°W
Report Text: KIPT 270105Z 29003KT 2SM -SN BR BKN016 OVC029 M04/M07 A2984 RMK AO2 P0000 T10441067
Loading
Personal Weather Stations






























Interactive Weather Map New forecast layout! Learn more

10-Day Weather Forecast

Advertisements
Track Severe Weather on mobile